AirNav   ProFlight Series 2 Aviation Headset
 
 1046 users online  

4PS9 Ferrante Heliport
Vandergrift, Pennsylvania, USA

GOING TO VANDERGRIFT?


FAA INFORMATION EFFECTIVE 18 JUNE 2020

Location

FAA Identifier: 4PS9
Lat/Long: 40-35-55.2360N 079-34-52.1610W
40-35.920600N 079-34.869350W
40.5986767,-79.5811558
(estimated)
Elevation: 950 ft. / 290 m (estimated)
Variation: 08W (1985)
From city: 1 mile E of VANDERGRIFT, PA
Time zone: UTC -4 (UTC -5 during Standard Time)
Zip code: 15690

Heliport Operations

Heliport use: Private use, PERSONAL USE.
Activation date: 05/1987
Control tower: no
ARTCC: CLEVELAND CENTER
FSS: ALTOONA FLIGHT SERVICE STATION
Attendance: UNATNDD
Segmented circle: no

Heliport Communications

WX AWOS-3PT at BTP (20 nm NW): 121.450 (724-586-6434)

Nearby radio navigation aids

VOR radial/distance  VOR name  Freq  Var
AGCr057/28.4ALLEGHENY VOR/DME110.0009W
EWCr123/31.7ELLWOOD CITY VOR/DME115.8008W
CIPr196/33.3CLARION VOR/DME112.9006W
JSTr302/38.1JOHNSTOWN VOR/DME113.0006W
RECr284/38.1REVLOC VOR/DME110.6009W
IHDr351/38.8INDIAN HEAD VORTAC108.2006W

Heliport Services

Runway Information

Helipad H1

Dimensions: 50 x 50 ft. / 15 x 15 m
Surface: turf
Traffic pattern: leftleft

Heliport Ownership and Management from official FAA records

Ownership: Privately-owned
Owner: ANTHONY M. FERRANTE
210 FERRANTE PLACE
VANDERGRIFT, PA 15690
Phone 412-567-5675

Additional Remarks

A52-H1 +30' TREES 100' W.
FOR CD CTC JOHNSTOWN APCH AT 814-532-5960, WHEN APCH CLSD CTC CLEVELAND ARTCC AT 440-774-0234.

Instrument Procedures

There are no published instrument procedures at 4PS9.

Some nearby airports with instrument procedures:

6P7 - McVille Airport (8 nm N)
KBTP - Pittsburgh/Butler Regional Airport (20 nm NW)
KLBE - Arnold Palmer Regional Airport (21 nm S)
KAGC - Allegheny County Airport (22 nm SW)
KIDI - Indiana County Airport (Jimmy Stewart Field) (22 nm E)
 
Loc | Ops | Rwys | IFR | FBO | Links
Com | Nav | Svcs | Stats | Notes
Area around 4PS9 (Ferrante Heliport)
 
Road maps at: MapQuest Bing Google
 
Aerial photo
No photo
 
Sectional chart

 
Airport distance calculator
Flying to Ferrante Heliport? Find the distance to fly.

From to 4PS9

Sunrise and sunset
Times for 02-Jul-2020
 Local
(UTC-4)
 Zulu
(UTC)
Morning civil twilight05:2009:20
Sunrise05:5309:53
Sunset20:5200:52
Evening civil twilight21:2501:25

Current date and time
Zulu (UTC)  02-Jul-2020 22:43:12
Local (UTC-4)  02-Jul-2020 18:43:12
 
METAR
KBTP 
20nm NW 
022156Z AUTO 00000KT 10SM SCT090 A2998 RMK AO2 SLPNO FZRANO PNO $
KAGC 
21nm SW 
022153Z 01006KT 10SM SCT070 31/15 A2996 RMK AO2 SLP139 T03060150
KLBE 
22nm SE 
022145Z 03008KT 10SM FEW050 32/13 A2995
KIDI 
23nm E 
022215Z AUTO 33005KT 10SM CLR 30/16 A3000 RMK A01
KP53 
26nm SW 
022156Z AUTO 00000KT 22/19 A3003 RMK AO1 SLP168 T02220189
KPIT 
32nm W 
022151Z 33009KT 10SM SCT065 31/14 A2997 RMK AO2 SLP145 T03110144
KJST 
38nm SE 
022154Z AUTO 32006KT 10SM CLR 29/11 A3000 RMK AO2 SLP141 T02940111
KBVI 
39nm W 
022216Z AUTO 35006KT 10SM CLR 30/15 A2999 RMK AO2 T02950152
TAF
KAGC 
21nm SW 
021737Z 0218/0318 36005KT P6SM SCT050
KLBE 
22nm SE 
021737Z 0218/0318 36005KT P6SM SCT050
NOTAMs
Click for the latest NOTAMs
NOTAMs are issued by the DoD/FAA and will open in a separate window not controlled by AirNav.

 

 
 

Would you like to see your business listed on this page?

 If your business provides an interesting product or service to pilots, flight crews, aircraft, or users of the Ferrante Heliport, you should consider listing it here.  To start the listing process, click on the button below
 
Add a business
 

Other Pages about Ferrante Heliport

Update a link
 
Copyright © AirNav, LLC. All rights reserved. Privacy Policy  Contact